Time;durP1;ratioP1;P1;durP2;ratioP2;P2;SDS_P1;SDS_P2;PMS_P1;PMS_P2;Temp;Humidity;BMP_temperature;BMP_pressure;BME280_temperature;BME280_humidity;BME280_pressure;Samples;Min_cycle;Max_cycle;Signal;HPM_P1;HPM_P2
2021/06/15 00:01:16;;;;;;;1.85;1.00;;;;;;;10.62;100.00;93150.16;4993773;28;20050;-77
2021/06/15 00:03:43;;;;;;;2.78;1.67;;;;;;;10.67;100.00;93145.19;4993601;28;20113;-77
2021/06/15 00:06:10;;;;;;;1.65;0.95;;;;;;;10.71;100.00;93140.41;4993488;28;20047;-77
2021/06/15 00:08:36;;;;;;;1.95;1.20;;;;;;;10.78;100.00;93146.28;4993497;28;20105;-77
2021/06/15 00:11:04;;;;;;;2.03;1.25;;;;;;;10.77;100.00;93142.91;4977725;28;20495;-77
2021/06/15 00:13:32;;;;;;;1.73;1.30;;;;;;;10.83;100.00;93146.41;4982619;28;20453;-77
2021/06/15 00:15:59;;;;;;;3.40;1.58;;;;;;;10.77;100.00;93142.91;4986944;28;20090;-77
2021/06/15 00:18:26;;;;;;;1.95;1.10;;;;;;;10.77;100.00;93139.56;4973740;28;20055;-77
2021/06/15 00:20:53;;;;;;;3.35;1.58;;;;;;;10.62;100.00;93120.16;4973460;28;20109;-77
2021/06/15 00:23:21;;;;;;;2.92;1.70;;;;;;;10.74;100.00;93142.56;4973654;28;20502;-77
2021/06/15 00:25:48;;;;;;;2.03;1.40;;;;;;;10.74;100.00;93138.19;4974194;28;20059;-77
2021/06/15 00:28:15;;;;;;;3.83;1.35;;;;;;;10.73;100.00;93135.88;4973787;28;20442;-77
2021/06/15 00:30:43;;;;;;;2.17;1.33;;;;;;;10.72;100.00;93136.84;4973563;28;20054;-77
2021/06/15 00:33:10;;;;;;;1.77;1.30;;;;;;;10.69;100.00;93135.47;4983504;28;20062;-77
2021/06/15 00:35:37;;;;;;;2.63;1.40;;;;;;;10.70;100.00;93137.06;4993236;28;20138;-77
2021/06/15 00:38:04;;;;;;;1.63;0.95;;;;;;;10.63;100.00;93141.47;4993189;28;20054;-77
2021/06/15 00:40:31;;;;;;;2.88;1.60;;;;;;;10.58;100.00;93134.41;4992741;28;20053;-77
2021/06/15 00:42:58;;;;;;;2.13;1.10;;;;;;;10.48;100.00;93134.88;4993096;28;20054;-77
2021/06/15 00:45:26;;;;;;;2.03;1.52;;;;;;;10.42;100.00;93130.56;4993071;28;20101;-77
2021/06/15 00:47:56;;;;;;;2.67;1.30;;;;;;;10.32;100.00;93119.97;4992637;28;20050;-77
2021/06/15 00:50:24;;;;;;;1.45;1.02;;;;;;;10.33;100.00;93135.19;4992897;28;20117;-77
2021/06/15 00:52:53;;;;;;;4.72;1.38;;;;;;;10.20;100.00;93140.41;4982783;28;20054;-77
2021/06/15 00:55:21;;;;;;;1.63;1.17;;;;;;;10.07;100.00;93142.06;4973193;28;20529;-77
2021/06/15 00:57:48;;;;;;;2.25;1.20;;;;;;;10.05;100.00;93145.84;4973195;28;20884;-77
2021/06/15 01:00:16;;;;;;;1.80;1.38;;;;;;;10.07;100.00;93146.41;4973373;28;20098;-77
2021/06/15 01:02:43;;;;;;;2.42;1.23;;;;;;;10.10;100.00;93138.28;4972675;28;20050;-77
2021/06/15 01:05:14;;;;;;;1.77;1.15;;;;;;;10.13;100.00;93148.13;4972993;28;20098;-77
2021/06/15 01:07:50;;;;;;;2.08;1.10;;;;;;;9.93;100.00;93114.91;4973204;28;20059;-77
2021/06/15 01:10:22;;;;;;;;;;;;;;;10.07;100.00;93144.63;4968681;28;20379;-77
2021/06/15 01:12:58;;;;;;;2.80;1.45;;;;;;;9.99;100.00;93142.28;4975710;28;20401;-77
2021/06/15 01:15:30;;;;;;;2.15;1.38;;;;;;;9.87;100.00;93142.19;4992241;28;20455;-77
2021/06/15 01:18:00;;;;;;;2.70;1.75;;;;;;;9.90;100.00;93152.03;4992146;28;20054;-77
2021/06/15 01:20:31;;;;;;;2.20;1.63;;;;;;;9.83;100.00;93141.03;4992387;28;20050;-77
2021/06/15 01:23:11;;;;;;;2.10;1.23;;;;;;;9.74;100.00;93143.84;4992004;28;20100;-77
2021/06/15 01:26:04;;;;;;;1.65;1.30;;;;;;;9.70;100.00;93142.69;4992099;28;20504;-77
2021/06/15 01:28:37;;;;;;;1.70;1.00;;;;;;;9.68;100.00;93147.22;4965243;28;20050;-77
2021/06/15 01:31:07;;;;;;;2.28;1.55;;;;;;;9.71;100.00;93148.56;4977136;28;20134;-77
2021/06/15 01:33:38;;;;;;;2.28;1.17;;;;;;;9.71;100.00;93148.56;4972683;28;20101;-77
2021/06/15 01:36:08;;;;;;;1.20;0.80;;;;;;;9.62;100.00;93148.84;4972719;28;20051;-77
2021/06/15 01:38:40;;;;;;;1.33;0.90;;;;;;;9.63;100.00;93158.09;4972587;28;20046;-76
2021/06/15 01:41:10;;;;;;;1.95;1.35;;;;;;;9.64;100.00;93148.63;4972685;28;20047;-76
2021/06/15 01:43:42;;;;;;;1.85;1.17;;;;;;;9.69;100.00;93153.94;4972596;28;20097;-77
2021/06/15 01:46:11;;;;;;;1.73;1.38;;;;;;;9.72;100.00;93148.38;4972306;28;20047;-76
2021/06/15 01:48:46;;;;;;;3.67;1.00;;;;;;;9.73;100.00;93147.38;4972481;28;20042;-77
2021/06/15 01:51:15;;;;;;;3.65;1.63;;;;;;;9.76;100.00;93139.28;4961059;28;20054;-77
2021/06/15 01:53:47;;;;;;;1.95;1.20;;;;;;;9.76;100.00;93134.16;4970882;28;20175;-77
2021/06/15 01:56:16;;;;;;;2.30;1.23;;;;;;;9.73;100.00;93136.34;4972263;28;20042;-76
2021/06/15 01:58:47;;;;;;;8.63;1.80;;;;;;;9.47;100.00;93110.63;4972363;28;20165;-76
2021/06/15 02:01:14;;;;;;;3.03;1.42;;;;;;;9.66;100.00;93136.38;4971920;28;20051;-76
2021/06/15 02:03:44;;;;;;;1.63;0.85;;;;;;;9.61;100.00;93141.34;4971837;28;20053;-76
2021/06/15 02:06:13;;;;;;;1.70;1.05;;;;;;;9.49;100.00;93131.72;4971583;28;20059;-76
2021/06/15 02:08:44;;;;;;;2.22;1.00;;;;;;;9.51;100.00;93138.41;4971698;28;20050;-76
2021/06/15 02:11:12;;;;;;;6.18;1.33;;;;;;;9.44;100.00;93134.09;4971384;28;20097;-76
2021/06/15 02:13:45;;;;;;;1.65;0.90;;;;;;;9.45;100.00;93142.59;4980776;28;20058;-76
2021/06/15 02:16:15;;;;;;;1.33;1.10;;;;;;;9.44;100.00;93141.81;4991206;28;20050;-76
2021/06/15 02:18:45;;;;;;;3.38;1.40;;;;;;;9.49;100.00;93144.53;4990992;28;20057;-76
2021/06/15 02:21:15;;;;;;;2.10;1.20;;;;;;;9.54;100.00;93145.72;4991135;28;20046;-76
2021/06/15 02:23:45;;;;;;;1.77;1.30;;;;;;;9.43;100.00;93129.19;4991021;28;20461;-76
2021/06/15 02:26:15;;;;;;;3.70;1.92;;;;;;;9.55;100.00;93137.03;4990014;28;20050;-76
2021/06/15 02:28:42;;;;;;;4.40;1.30;;;;;;;9.55;100.00;93137.03;4990875;28;20133;-77
2021/06/15 02:31:13;;;;;;;1.83;1.35;;;;;;;9.51;100.00;93130.72;4990890;28;20497;-77
2021/06/15 02:33:45;;;;;;;2.13;1.40;;;;;;;9.49;100.00;93128.34;4991360;28;20509;-77
2021/06/15 02:36:17;;;;;;;2.00;1.30;;;;;;;9.51;100.00;93131.53;4991151;28;20494;-76
2021/06/15 02:38:49;;;;;;;2.38;0.95;;;;;;;9.44;100.00;93133.34;4990904;28;20100;-76
2021/06/15 02:41:17;;;;;;;3.17;2.00;;;;;;;9.26;100.00;93119.38;4990899;28;20050;-76
2021/06/15 02:43:45;;;;;;;2.60;1.65;;;;;;;9.30;100.00;93135.19;4990526;28;20046;-76
2021/06/15 02:46:16;;;;;;;4.00;1.52;;;;;;;9.29;100.00;93136.13;4990668;28;20066;-76
2021/06/15 02:48:51;;;;;;;1.92;1.55;;;;;;;9.20;100.00;93136.38;4990540;28;20494;-76
2021/06/15 02:51:19;;;;;;;2.17;1.17;;;;;;;9.14;100.00;93134.63;4990389;28;20054;-76
2021/06/15 02:53:53;;;;;;;1.88;1.45;;;;;;;9.13;100.00;93132.25;4990747;28;20053;-76
2021/06/15 02:56:22;;;;;;;3.15;1.48;;;;;;;9.11;100.00;93136.81;4990265;28;20042;-76
2021/06/15 02:58:49;;;;;;;2.50;1.23;;;;;;;9.09;100.00;93144.69;4990507;28;20058;-76
2021/06/15 03:01:16;;;;;;;3.25;2.30;;;;;;;9.09;100.00;93142.13;4956534;28;20118;-76
2021/06/15 03:03:44;;;;;;;2.40;0.93;;;;;;;9.09;100.00;93142.13;4951603;28;20055;-76
2021/06/15 03:06:11;;;;;;;2.25;1.17;;;;;;;9.08;100.00;93141.34;4951598;28;20443;-76
2021/06/15 03:08:40;;;;;;;2.60;1.10;;;;;;;9.08;100.00;93141.34;4951431;28;20051;-76
2021/06/15 03:11:07;;;;;;;2.85;1.13;;;;;;;9.09;100.00;93144.69;4967136;28;20486;-76
2021/06/15 03:13:39;;;;;;;2.70;1.27;;;;;;;9.12;100.00;93139.16;4979779;28;20054;-76
2021/06/15 03:16:09;;;;;;;1.70;1.10;;;;;;;9.14;100.00;93133.84;4990072;28;20065;-76
2021/06/15 03:18:41;;;;;;;3.25;1.75;;;;;;;9.14;100.00;93146.66;4990077;28;20054;-76
2021/06/15 03:21:13;;;;;;;2.83;1.70;;;;;;;9.09;100.00;93150.59;4990235;28;20162;-76
2021/06/15 03:23:48;;;;;;;3.55;1.65;;;;;;;9.06;100.00;93140.75;4990377;28;20062;-76
2021/06/15 03:26:20;;;;;;;6.93;2.63;;;;;;;9.01;100.00;93150.81;4989685;28;20109;-76
2021/06/15 03:28:52;;;;;;;1.95;1.42;;;;;;;9.17;100.00;93180.34;4989945;28;20046;-76
2021/06/15 03:31:20;;;;;;;2.80;1.23;;;;;;;9.16;100.00;93183.91;4989834;28;20149;-76
2021/06/15 03:33:51;;;;;;;1.90;0.90;;;;;;;9.16;100.00;93186.47;4989825;28;20046;-76
2021/06/15 03:36:22;;;;;;;1.55;1.00;;;;;;;9.16;100.00;93189.03;4989883;28;20549;-76
2021/06/15 03:38:54;;;;;;;1.88;1.27;;;;;;;9.17;100.00;93189.81;4990001;28;20061;-76
2021/06/15 03:41:21;;;;;;;5.40;1.80;;;;;;;9.28;100.00;93202.00;4990166;28;20101;-76
2021/06/15 03:43:50;;;;;;;2.60;1.27;;;;;;;9.34;100.00;93200.41;4989852;28;20548;-76
2021/06/15 03:46:20;;;;;;;9.73;2.60;;;;;;;9.51;100.00;93213.56;4990109;28;20050;-76
2021/06/15 03:48:50;;;;;;;5.22;1.63;;;;;;;9.60;100.00;93206.44;4989724;28;20058;-76
2021/06/15 03:51:23;;;;;;;2.75;2.00;;;;;;;9.69;100.00;93212.13;4990205;28;20058;-76
2021/06/15 03:53:51;;;;;;;11.35;2.75;;;;;;;9.79;100.00;93191.97;4989835;28;20050;-76
2021/06/15 03:56:19;;;;;;;3.55;1.48;;;;;;;9.94;100.00;93183.97;4989905;28;20065;-76
2021/06/15 03:58:47;;;;;;;3.95;1.70;;;;;;;10.09;100.00;93185.50;4978953;28;20051;-77
2021/06/15 04:01:16;;;;;;;4.80;2.45;;;;;;;10.19;100.00;93182.47;4970448;28;20046;-77
2021/06/15 04:03:44;;;;;;;3.35;1.63;;;;;;;10.20;100.00;93184.81;4970332;28;20058;-76
2021/06/15 04:06:12;;;;;;;4.13;2.00;;;;;;;10.15;100.00;93179.53;4970272;28;20047;-77
2021/06/15 04:08:42;;;;;;;4.75;1.33;;;;;;;10.19;100.00;93174.75;4970421;28;20070;-77
2021/06/15 04:11:10;;;;;;;2.78;1.60;;;;;;;10.14;100.00;93185.66;4970390;28;20047;-77
2021/06/15 04:13:40;;;;;;;2.05;1.35;;;;;;;10.13;100.00;93194.34;4979750;28;20050;-77
2021/06/15 04:16:08;;;;;;;2.50;1.50;;;;;;;10.10;100.00;93192.19;4989843;28;20685;-76
2021/06/15 04:18:38;;;;;;;2.28;1.50;;;;;;;10.10;100.00;93190.41;4978765;28;20047;-76
2021/06/15 04:21:08;;;;;;;2.28;1.50;;;;;;;10.12;100.00;93215.88;4969949;28;20047;-76
2021/06/15 04:23:45;;;;;;;3.05;1.58;;;;;;;10.16;100.00;93220.41;4969613;28;20046;-77
2021/06/15 04:26:12;;;;;;;2.20;1.35;;;;;;;10.27;100.00;93211.25;4969862;28;20043;-77
2021/06/15 04:28:39;;;;;;;3.20;1.73;;;;;;;10.33;100.00;93219.09;4969780;28;20054;-76
2021/06/15 04:31:07;;;;;;;21.80;2.55;;;;;;;10.46;100.00;93210.56;4970168;28;20058;-76
2021/06/15 04:33:34;;;;;;;2.45;1.30;;;;;;;10.55;100.00;93211.84;4969880;28;20051;-76
2021/06/15 04:36:05;;;;;;;2.72;1.58;;;;;;;10.61;100.00;93215.38;4970317;28;20050;-76
2021/06/15 04:38:38;;;;;;;2.83;1.48;;;;;;;10.71;100.00;93220.03;4972924;28;20058;-77
2021/06/15 04:41:12;;;;;;;2.03;1.45;;;;;;;10.75;100.00;93221.22;4973458;28;20058;-77
2021/06/15 04:43:45;;;;;;;2.35;1.92;;;;;;;10.76;100.00;93213.28;4973328;28;20507;-76
2021/06/15 04:46:19;;;;;;;2.97;1.52;;;;;;;10.90;100.00;93215.75;4973176;28;20057;-76
2021/06/15 04:48:50;;;;;;;3.50;2.13;;;;;;;11.02;100.00;93221.75;4973175;28;20051;-76
2021/06/15 04:51:21;;;;;;;2.45;1.65;;;;;;;11.26;100.00;93221.16;4973402;28;20051;-76
2021/06/15 04:53:50;;;;;;;2.78;1.92;;;;;;;11.46;100.00;93224.31;4973365;28;20047;-77
2021/06/15 04:56:19;;;;;;;5.35;1.88;;;;;;;11.61;100.00;93228.28;4973444;28;20074;-77
2021/06/15 04:58:48;;;;;;;2.30;1.58;;;;;;;11.72;100.00;93231.94;4973336;28;20062;-77
2021/06/15 05:01:17;;;;;;;1.80;1.38;;;;;;;11.81;100.00;93227.28;4973316;28;20047;-77
2021/06/15 05:03:45;;;;;;;4.78;1.95;;;;;;;11.92;100.00;93223.19;4973161;28;20161;-77
2021/06/15 05:06:13;;;;;;;3.65;1.92;;;;;;;12.02;100.00;93226.84;4973033;28;20133;-77
2021/06/15 05:08:46;;;;;;;3.17;1.67;;;;;;;12.05;100.00;93227.41;4973224;28;20098;-77
2021/06/15 05:11:14;;;;;;;2.97;1.45;;;;;;;12.16;100.00;93224.09;4972645;28;20657;-77
2021/06/15 05:13:44;;;;;;;1.40;1.00;;;;;;;12.16;100.00;93227.47;4973084;28;20047;-77
2021/06/15 05:16:13;;;;;;;5.55;1.48;;;;;;;12.24;100.00;93228.16;4972954;28;20047;-77
2021/06/15 05:18:40;;;;;;;3.80;2.35;;;;;;;12.33;100.00;93226.06;4972741;28;20059;-76
2021/06/15 05:21:10;;;;;;;2.55;1.50;;;;;;;12.39;100.00;93228.56;4973026;28;20407;-77
2021/06/15 05:23:42;;;;;;;3.08;1.38;;;;;;;12.51;100.00;93240.69;4972822;28;20051;-77
2021/06/15 05:26:08;;;;;;;2.55;1.45;;;;;;;12.60;99.84;93233.41;4972599;28;20090;-77
2021/06/15 05:28:35;;;;;;;2.15;1.20;;;;;;;12.67;97.88;93245.19;4972773;28;20117;-77
2021/06/15 05:31:03;;;;;;;2.33;1.52;;;;;;;12.79;97.25;93239.28;4972712;28;20392;-77
2021/06/15 05:33:30;;;;;;;2.28;1.15;;;;;;;12.73;96.14;93253.81;4972271;28;20054;-77
2021/06/15 05:35:57;;;;;;;3.00;1.40;;;;;;;12.68;97.67;93253.69;4972438;28;20491;-77
2021/06/15 05:38:24;;;;;;;3.10;2.08;;;;;;;12.57;96.89;93265.56;4972576;28;20054;-77
2021/06/15 05:40:50;;;;;;;3.40;1.65;;;;;;;12.53;97.87;93260.06;4972321;28;20458;-77
2021/06/15 05:43:17;;;;;;;3.83;2.17;;;;;;;12.88;97.01;93263.72;4972388;28;20550;-77
2021/06/15 05:45:44;;;;;;;3.53;2.13;;;;;;;13.14;96.43;93253.19;4972215;28;20043;-77
2021/06/15 05:48:14;;;;;;;3.28;1.88;;;;;;;13.31;95.36;93255.88;4972194;28;20097;-77
2021/06/15 05:50:41;;;;;;;2.92;1.70;;;;;;;13.51;95.29;93260.72;4972343;28;20054;-78
2021/06/15 05:53:08;;;;;;;2.60;1.98;;;;;;;13.69;93.81;93259.00;4972405;28;20057;-77
2021/06/15 05:55:34;;;;;;;2.42;1.52;;;;;;;13.85;93.21;93266.03;4972082;28;20049;-77
2021/06/15 05:58:01;;;;;;;4.50;2.08;;;;;;;13.98;92.18;93259.06;4971763;28;20054;-77
2021/06/15 06:00:28;;;;;;;2.53;1.55;;;;;;;14.06;92.29;93252.75;4971731;28;20058;-77
2021/06/15 06:02:54;;;;;;;2.72;1.83;;;;;;;14.03;91.66;93262.53;4972263;28;20055;-77
2021/06/15 06:08:10;;;;;;;5.75;1.40;;;;;;;13.29;93.91;93250.16;4971864;28;20777;-78
2021/06/15 06:10:39;;;;;;;7.45;2.05;;;;;;;13.08;95.91;93255.66;4971945;28;20105;-77
2021/06/15 06:13:11;;;;;;;3.85;1.88;;;;;;;12.58;97.96;93256.81;4971984;28;20102;-77
2021/06/15 06:15:38;;;;;;;3.78;2.20;;;;;;;12.21;99.72;93264.66;4971520;28;20051;-77
2021/06/15 06:18:08;;;;;;;2.10;1.52;;;;;;;12.77;98.16;93260.09;4971813;28;20859;-78
2021/06/15 06:20:38;;;;;;;2.75;1.90;;;;;;;13.09;96.35;93251.28;4989537;28;20054;-77
2021/06/15 06:23:06;;;;;;;4.45;2.00;;;;;;;13.40;95.46;93251.16;4989607;28;20046;-77
2021/06/15 06:25:33;;;;;;;2.60;1.60;;;;;;;13.67;96.13;93254.09;4990992;28;20049;-78
2021/06/15 06:28:01;;;;;;;3.28;1.40;;;;;;;13.65;92.99;93245.00;4990943;28;20054;-78
2021/06/15 06:30:47;;;;;;;2.40;1.73;;;;;;;13.86;92.11;93253.94;4990678;28;20046;-78
2021/06/15 06:33:13;;;;;;;2.17;1.30;;;;;;;13.71;91.84;93244.09;4990659;28;20054;-78
2021/06/15 06:35:41;;;;;;;3.42;1.75;;;;;;;13.76;92.56;93249.34;4990870;28;20049;-78
2021/06/15 06:38:08;;;;;;;3.08;2.03;;;;;;;13.89;93.10;93246.50;4990800;28;20052;-78
2021/06/15 06:40:35;;;;;;;2.90;1.70;;;;;;;13.74;91.48;93246.19;4990531;28;20100;-78
2021/06/15 06:43:02;;;;;;;2.40;1.33;;;;;;;13.90;91.21;93253.22;4990477;28;20050;-78
2021/06/15 06:45:29;;;;;;;2.60;1.73;;;;;;;13.75;89.27;93255.53;4990314;28;20112;-77
2021/06/15 06:47:56;;;;;;;1.98;1.15;;;;;;;14.03;88.82;93266.91;4990537;28;20050;-77
2021/06/15 06:50:23;;;;;;;3.00;1.55;;;;;;;14.66;86.96;93246.31;4990241;28;20054;-77
2021/06/15 06:52:51;;;;;;;9.48;2.25;;;;;;;15.02;86.30;93259.03;4990377;28;20101;-78
2021/06/15 06:55:20;;;;;;;1.75;1.25;;;;;;;15.18;86.54;93259.28;4990577;28;20046;-78
2021/06/15 06:57:47;;;;;;;1.95;1.15;;;;;;;14.72;83.94;93259.31;4990497;28;20061;-79
2021/06/15 07:00:15;;;;;;;2.85;1.83;;;;;;;15.09;83.67;93244.13;4989566;28;20053;-79
2021/06/15 07:02:42;;;;;;;14.05;4.05;;;;;;;14.94;84.57;93247.28;4990201;28;20540;-78
2021/06/15 07:05:11;;;;;;;1.75;1.23;;;;;;;14.96;84.50;93237.47;4990169;28;20058;-79
2021/06/15 07:07:37;;;;;;;6.00;1.90;;;;;;;14.80;85.11;93251.97;4990407;28;20074;-78
2021/06/15 07:10:06;;;;;;;6.20;2.50;;;;;;;14.78;85.87;93255.81;4990074;28;20105;-78
2021/06/15 07:12:33;;;;;;;4.35;1.88;;;;;;;14.34;87.67;93235.69;4990186;28;20053;-78
2021/06/15 07:15:00;;;;;;;3.45;1.70;;;;;;;14.36;89.53;93241.41;4990224;28;20050;-78
2021/06/15 07:17:27;;;;;;;2.15;1.05;;;;;;;14.75;86.41;93233.00;4990313;28;20054;-78
2021/06/15 07:19:53;;;;;;;2.78;1.48;;;;;;;15.17;86.77;93229.22;4989887;28;20102;-79
2021/06/15 07:22:20;;;;;;;2.28;1.45;;;;;;;15.36;85.35;93232.31;4990114;28;20046;-79
2021/06/15 07:24:47;;;;;;;2.10;1.20;;;;;;;15.63;83.97;93226.47;4989949;28;20054;-79
2021/06/15 07:27:15;;;;;;;1.65;0.98;;;;;;;16.29;81.88;93225.66;4989714;28;20054;-78
2021/06/15 07:29:42;;;;;;;2.70;1.40;;;;;;;16.67;78.88;93225.72;4989572;28;20046;-78
2021/06/15 07:32:09;;;;;;;1.48;0.93;;;;;;;16.91;77.09;93216.81;4989813;28;20829;-79
2021/06/15 07:34:36;;;;;;;1.73;0.93;;;;;;;16.99;77.00;93200.03;4990332;28;20073;-79
2021/06/15 07:37:02;;;;;;;1.95;1.13;;;;;;;17.23;77.85;93200.47;4989780;28;20140;-79
2021/06/15 07:39:29;;;;;;;2.80;0.95;;;;;;;17.55;76.70;93215.16;4989856;28;20058;-79
2021/06/15 07:41:56;;;;;;;6.30;1.42;;;;;;;17.26;78.04;93199.94;4989745;28;20539;-79
2021/06/15 07:44:24;;;;;;;1.63;1.10;;;;;;;17.60;77.80;93219.59;4989940;28;20050;-79
2021/06/15 07:46:53;;;;;;;2.05;1.48;;;;;;;17.63;76.55;93214.69;4989856;28;20046;-79
2021/06/15 07:49:20;;;;;;;2.03;1.23;;;;;;;17.65;76.10;93195.44;4989639;28;20614;-80
2021/06/15 07:51:46;;;;;;;1.70;1.10;;;;;;;17.47;75.91;93195.66;4989472;28;20054;-80
2021/06/15 07:54:13;;;;;;;4.78;1.85;;;;;;;17.73;76.70;93195.75;4989401;28;20046;-79
2021/06/15 07:56:40;;;;;;;2.22;0.90;;;;;;;17.92;74.89;93189.31;4989541;28;20465;-79
2021/06/15 07:59:07;;;;;;;1.95;0.93;;;;;;;18.03;74.78;93178.69;4989499;28;20054;-80
2021/06/15 08:01:35;;;;;;;1.25;0.75;;;;;;;18.23;72.08;93190.19;4989643;28;20046;-79
2021/06/15 08:04:02;;;;;;;1.85;1.30;;;;;;;18.03;72.91;93186.50;4989648;28;20054;-79
2021/06/15 08:06:29;;;;;;;1.35;0.85;;;;;;;17.96;73.54;93179.97;4989593;28;20050;-79
2021/06/15 08:08:58;;;;;;;1.33;0.88;;;;;;;17.76;73.70;93179.66;4966730;28;20050;-80
2021/06/15 08:11:24;;;;;;;3.10;1.33;;;;;;;17.28;74.98;93168.56;4970270;28;20466;-80
2021/06/15 08:13:51;;;;;;;1.92;1.00;;;;;;;16.67;76.73;93173.84;4973700;28;20454;-80
2021/06/15 08:16:20;;;;;;;3.28;1.20;;;;;;;17.02;78.81;93166.56;4973555;28;20042;-80
2021/06/15 08:18:48;;;;;;;2.67;0.88;;;;;;;17.06;74.37;93165.06;4973638;28;20051;-80
2021/06/15 08:21:15;;;;;;;2.47;1.02;;;;;;;17.45;74.31;93163.94;4974039;28;20046;-80
2021/06/15 08:23:42;;;;;;;2.03;1.20;;;;;;;17.87;74.62;93164.88;4973858;28;20459;-80
2021/06/15 08:26:09;;;;;;;1.08;0.70;;;;;;;18.50;72.54;93162.38;4973801;28;20054;-80
2021/06/15 08:28:37;;;;;;;2.05;1.10;;;;;;;18.73;72.29;93163.69;4973913;28;20055;-80
2021/06/15 08:31:04;;;;;;;2.05;1.33;;;;;;;18.66;72.81;93163.94;4973762;28;20057;-80
2021/06/15 08:33:30;;;;;;;1.73;1.08;;;;;;;18.72;71.33;93175.13;4973699;28;20481;-79
2021/06/15 08:35:58;;;;;;;3.47;1.15;;;;;;;18.76;69.20;93172.78;4973514;28;20042;-79
2021/06/15 08:38:25;;;;;;;2.13;1.20;;;;;;;18.89;72.25;93176.69;4973805;28;20046;-80
2021/06/15 08:40:53;;;;;;;2.08;0.90;;;;;;;18.77;70.28;93172.53;4973598;28;20051;-79
2021/06/15 08:43:21;;;;;;;2.45;0.93;;;;;;;18.19;72.34;93170.19;4973651;28;20058;-80
2021/06/15 08:45:49;;;;;;;2.22;1.08;;;;;;;18.23;73.25;93158.22;4973296;28;20062;-79
2021/06/15 08:48:16;;;;;;;1.65;1.08;;;;;;;18.43;72.19;93167.88;4973512;28;20066;-80
2021/06/15 08:50:44;;;;;;;1.27;0.85;;;;;;;18.19;71.50;93141.56;4973594;28;20051;-80
2021/06/15 08:53:13;;;;;;;1.55;0.73;;;;;;;18.26;72.36;93166.28;4973294;28;20125;-80
2021/06/15 08:55:47;;;;;;;2.55;1.30;;;;;;;18.38;71.75;93171.22;4973424;28;20047;-80
2021/06/15 08:58:25;;;;;;;1.13;0.70;;;;;;;18.11;69.86;93161.06;4972961;28;20129;-80
2021/06/15 09:00:52;;;;;;;1.95;0.98;;;;;;;17.25;73.16;93174.25;4972903;28;20591;-80
2021/06/15 09:03:18;;;;;;;2.20;0.93;;;;;;;17.46;73.31;93160.31;4973296;28;20098;-80
2021/06/15 09:05:45;;;;;;;2.72;0.93;;;;;;;17.36;71.91;93136.94;4972840;28;20055;-80
2021/06/15 09:08:15;;;;;;;1.88;0.85;;;;;;;17.52;74.19;93155.16;4972750;28;20101;-80
2021/06/15 09:10:44;;;;;;;2.15;1.15;;;;;;;17.56;75.89;93159.59;4972814;28;20061;-80
2021/06/15 09:13:33;;;;;;;2.00;1.17;;;;;;;17.71;73.47;93166.66;4972623;28;20050;-80
2021/06/15 09:16:00;;;;;;;1.52;0.95;;;;;;;17.58;71.43;93154.13;4973188;28;20133;-80
2021/06/15 09:18:29;;;;;;;3.10;1.80;;;;;;;17.72;68.69;93167.41;4973017;28;20050;-80
2021/06/15 09:20:59;;;;;;;2.38;1.05;;;;;;;18.07;71.77;93158.19;4973118;28;20109;-80
2021/06/15 09:23:34;;;;;;;1.45;0.88;;;;;;;18.29;66.61;93155.34;4972432;28;20066;-80
2021/06/15 09:26:02;;;;;;;1.10;0.55;;;;;;;18.57;66.13;93155.13;4972610;28;20578;-81
2021/06/15 09:28:29;;;;;;;1.85;0.98;;;;;;;18.51;64.68;93156.94;4972795;28;20065;-81
2021/06/15 09:30:57;;;;;;;1.65;0.60;;;;;;;18.92;64.15;93134.50;4972509;28;20054;-80
2021/06/15 09:33:37;;;;;;;1.35;0.68;;;;;;;19.95;61.00;93154.22;4972744;28;20141;-80
2021/06/15 09:36:08;;;;;;;1.02;0.70;;;;;;;20.14;59.17;93148.41;4972406;28;20134;-81
2021/06/15 09:38:36;;;;;;;1.17;0.50;;;;;;;20.39;60.20;93144.84;4972541;28;20050;-81
2021/06/15 09:41:03;;;;;;;1.40;0.57;;;;;;;20.26;62.94;93137.63;4972640;28;20418;-78
2021/06/15 09:43:31;;;;;;;0.85;0.40;;;;;;;20.69;58.75;93143.03;4972559;28;20050;-79
2021/06/15 09:45:57;;;;;;;1.77;0.80;;;;;;;20.70;59.33;93138.59;4972256;28;20094;-79
2021/06/15 09:48:29;;;;;;;1.70;0.80;;;;;;;21.03;57.85;93125.00;4972180;28;20133;-79
2021/06/15 09:50:59;;;;;;;1.60;0.73;;;;;;;21.13;57.97;93126.72;4972454;28;20450;-79
2021/06/15 09:53:29;;;;;;;1.27;0.73;;;;;;;21.20;57.84;93130.56;4972530;28;20135;-78
2021/06/15 09:55:59;;;;;;;2.15;1.30;;;;;;;21.10;57.73;93120.22;4972340;28;20050;-82
2021/06/15 09:58:43;;;;;;;1.77;1.02;;;;;;;20.66;57.81;93117.50;4972319;28;20149;-82
2021/06/15 10:01:10;;;;;;;1.60;0.63;;;;;;;20.38;56.75;93129.47;4972159;28;20050;-83
2021/06/15 10:03:37;;;;;;;0.65;0.45;;;;;;;20.09;57.52;93125.75;4972236;28;20066;-82
2021/06/15 10:06:05;;;;;;;1.20;0.70;;;;;;;19.87;58.60;93124.28;4972155;28;20089;-81
2021/06/15 10:08:45;;;;;;;1.80;0.63;;;;;;;19.98;59.29;93126.84;4942266;28;20043;-79
2021/06/15 10:11:14;;;;;;;3.38;0.73;;;;;;;20.07;58.66;93121.84;4942577;28;20043;-79
2021/06/15 10:13:41;;;;;;;3.08;0.80;;;;;;;20.18;61.08;93120.72;4941385;28;20062;-79
2021/06/15 10:16:07;;;;;;;1.20;0.60;;;;;;;20.73;59.41;93125.00;4943401;28;20048;-79
2021/06/15 10:18:35;;;;;;;1.35;0.60;;;;;;;20.95;57.44;93113.34;4942847;28;20043;-79
2021/06/15 10:21:02;;;;;;;1.75;1.05;;;;;;;21.03;56.99;93119.78;4941373;28;20139;-79
2021/06/15 10:23:29;;;;;;;0.88;0.60;;;;;;;20.97;56.52;93113.84;4941340;28;20055;-79
2021/06/15 10:25:57;;;;;;;2.50;0.75;;;;;;;20.90;56.98;93095.09;4943788;28;20396;-79
2021/06/15 10:28:26;;;;;;;0.95;0.50;;;;;;;20.83;57.88;93113.69;4942456;28;20083;-79
2021/06/15 10:31:01;;;;;;;0.90;0.50;;;;;;;19.72;58.26;93127.75;4935718;28;20119;-80
2021/06/15 10:33:28;;;;;;;1.25;0.80;;;;;;;20.14;57.84;93123.09;4933241;29;20134;-78
2021/06/15 10:35:58;;;;;;;1.27;0.70;;;;;;;19.84;58.87;93119.63;4932433;29;20055;-81
2021/06/15 10:38:40;;;;;;;0.85;0.40;;;;;;;19.99;58.77;93110.16;4933065;29;20055;-81
2021/06/15 10:41:08;;;;;;;2.10;1.25;;;;;;;19.70;58.40;93126.47;4933093;29;20138;-79
2021/06/15 10:43:46;;;;;;;1.02;0.65;;;;;;;18.93;59.78;93115.28;4933039;29;20098;-81
2021/06/15 10:46:41;;;;;;;1.52;0.65;;;;;;;18.52;59.40;93116.09;4932970;29;20048;-79
2021/06/15 10:49:10;;;;;;;4.47;1.40;;;;;;;18.46;60.51;93096.34;4909749;29;20111;-80
2021/06/15 10:51:58;;;;;;;1.08;0.75;;;;;;;19.01;61.17;93106.13;4932435;29;20051;-80
2021/06/15 10:54:42;;;;;;;1.27;0.70;;;;;;;19.23;59.94;93108.44;4932603;29;20770;-80
2021/06/15 10:57:30;;;;;;;1.35;0.80;;;;;;;19.27;60.71;93096.44;4932401;29;20059;-81
2021/06/15 11:00:08;;;;;;;0.85;0.40;;;;;;;19.17;58.80;93089.44;4932986;29;20047;-81
2021/06/15 11:02:36;;;;;;;1.40;1.00;;;;;;;19.01;57.47;93087.91;4932732;29;20059;-81
2021/06/15 11:05:36;;;;;;;0.88;0.40;;;;;;;19.42;60.04;93081.78;4942258;28;20048;-82
2021/06/15 11:08:18;;;;;;;2.03;0.95;;;;;;;19.96;57.34;93088.03;4935870;28;20051;-78
2021/06/15 11:10:47;;;;;;;1.52;0.60;;;;;;;19.68;59.14;93085.06;4932544;29;20057;-82
2021/06/15 11:13:14;;;;;;;1.30;0.63;;;;;;;19.68;58.13;93089.47;4932570;29;20056;-79
2021/06/15 11:16:00;;;;;;;1.60;0.77;;;;;;;19.82;57.19;93079.25;4932791;29;20054;-80
2021/06/15 11:18:28;;;;;;;1.00;0.60;;;;;;;20.16;56.53;93073.28;4932563;29;20048;-81
2021/06/15 11:20:55;;;;;;;2.47;0.50;;;;;;;20.33;56.67;93078.13;4932253;29;20066;-80
2021/06/15 11:23:28;;;;;;;1.42;0.80;;;;;;;20.36;58.03;93079.41;4932571;29;20103;-81
2021/06/15 11:26:05;;;;;;;2.28;0.90;;;;;;;19.69;58.23;93084.00;4932350;29;20095;-83
2021/06/15 11:28:39;;;;;;;3.88;1.08;;;;;;;19.95;57.25;93086.44;4931947;29;20043;-80
2021/06/15 11:31:33;;;;;;;1.13;0.60;;;;;;;20.11;57.56;93086.38;4932094;29;20051;-79
2021/06/15 11:34:15;;;;;;;1.33;0.70;;;;;;;19.25;58.03;93049.03;4932256;29;20060;-79
2021/06/15 11:36:43;;;;;;;0.80;0.40;;;;;;;19.36;57.90;93062.81;4931468;29;20507;-80
2021/06/15 11:39:34;;;;;;;1.10;0.70;;;;;;;19.26;58.79;93073.28;4952709;28;20046;-80
2021/06/15 11:42:26;;;;;;;1.65;0.80;;;;;;;19.25;60.23;93072.47;4968900;28;20061;-79
2021/06/15 11:44:58;;;;;;;0.80;0.50;;;;;;;18.38;61.39;93067.19;4951611;28;20494;-80
2021/06/15 11:47:29;;;;;;;0.93;0.50;;;;;;;18.82;60.20;93075.47;4973789;28;20133;-80